Time;durP1;ratioP1;P1;durP2;ratioP2;P2;SDS_P1;SDS_P2;PMS_P1;PMS_P2;Temp;Humidity;BMP_temperature;BMP_pressure;BME280_temperature;BME280_humidity;BME280_pressure;Samples;Min_cycle;Max_cycle;Signal;HPM_P1;HPM_P2
2022/10/07 00:00:36;;;;;;;15.70;8.28;;;;;;;7.91;100.00;101077.77;1661747;86;22578;-78
2022/10/07 00:03:43;;;;;;;17.30;8.78;;;;;;;7.89;100.00;101079.25;1663065;86;21809;-78
2022/10/07 00:06:49;;;;;;;14.78;8.38;;;;;;;7.90;100.00;101075.55;1662994;86;21217;-77
2022/10/07 00:09:56;;;;;;;12.53;7.12;;;;;;;7.92;100.00;101080.34;1663021;86;21803;-77
2022/10/07 00:13:02;;;;;;;13.40;7.50;;;;;;;7.91;100.00;101078.63;1661793;86;21244;-77
2022/10/07 00:16:19;;;;;;;14.05;7.97;;;;;;;7.86;100.00;101070.52;1663073;86;21879;-77
2022/10/07 00:19:25;;;;;;;15.58;7.62;;;;;;;7.83;100.00;101063.48;1662984;86;22269;-77
2022/10/07 00:22:31;;;;;;;10.00;7.17;;;;;;;7.84;100.00;101062.47;1663223;86;21205;-77
2022/10/07 00:25:37;;;;;;;14.78;7.95;;;;;;;7.81;100.00;101061.41;1663074;86;21264;-77
2022/10/07 00:28:43;;;;;;;14.40;7.50;;;;;;;7.77;100.00;101064.05;1663110;86;21863;-77
2022/10/07 00:31:49;;;;;;;20.55;7.37;;;;;;;7.77;100.00;101065.41;1662173;86;21228;-77
2022/10/07 00:34:56;;;;;;;14.23;7.78;;;;;;;7.78;100.00;101060.32;1663102;86;21850;-77
2022/10/07 00:38:02;;;;;;;12.03;6.62;;;;;;;7.77;100.00;101057.75;1663083;86;21216;-77
2022/10/07 00:41:08;;;;;;;11.38;6.35;;;;;;;7.77;100.00;101053.16;1634346;86;21229;-77
2022/10/07 00:44:47;;;;;;;10.75;6.37;;;;;;;7.75;100.00;101052.92;1662763;86;21264;-77
2022/10/07 00:47:56;;;;;;;9.40;6.33;;;;;;;7.69;100.00;101055.20;1663009;86;21212;-77
2022/10/07 00:51:03;;;;;;;18.85;7.47;;;;;;;7.63;100.00;101043.52;1662710;86;21221;-77
2022/10/07 00:54:11;;;;;;;16.23;6.78;;;;;;;7.60;100.00;101046.52;1663140;86;21212;-77
2022/10/07 00:57:17;;;;;;;12.05;7.17;;;;;;;7.59;100.00;101053.47;1662929;86;21288;-77
2022/10/07 01:00:23;;;;;;;12.70;6.62;;;;;;;7.55;100.00;101051.52;1661901;86;21224;-77
2022/10/07 01:03:29;;;;;;;12.82;6.55;;;;;;;7.56;100.00;101052.38;1661765;86;21205;-77
2022/10/07 01:06:37;;;;;;;13.10;7.25;;;;;;;7.57;100.00;101054.09;1661850;86;21753;-77
2022/10/07 01:09:35;;;;;;;11.33;6.95;;;;;;;7.55;100.00;101056.10;1663074;86;21216;-77
2022/10/07 01:13:04;;;;;;;15.15;7.10;;;;;;;7.60;100.00;101051.10;1661926;86;21366;-78
2022/10/07 01:16:30;;;;;;;16.00;8.00;;;;;;;7.59;100.00;101050.75;1650503;86;21782;-78
2022/10/07 01:20:04;;;;;;;16.15;8.10;;;;;;;7.59;100.00;101048.02;1663077;86;21228;-78
2022/10/07 01:23:29;;;;;;;8.65;6.60;;;;;;;7.59;100.00;101046.16;1663197;86;21204;-77
2022/10/07 01:26:54;;;;;;;14.85;6.83;;;;;;;7.60;100.00;101051.10;1663164;86;21212;-77
2022/10/07 01:30:10;;;;;;;10.53;6.15;;;;;;;7.59;100.00;101050.75;1661826;86;21251;-78
2022/10/07 01:33:27;;;;;;;14.93;6.95;;;;;;;7.59;100.00;101052.11;1661903;86;21827;-78
2022/10/07 01:36:35;;;;;;;14.53;7.37;;;;;;;7.59;100.00;101055.69;1661909;86;22535;-78
2022/10/07 01:39:46;;;;;;;23.75;7.70;;;;;;;7.63;100.00;101053.55;1662011;86;21233;-78
2022/10/07 01:42:53;;;;;;;15.53;6.50;;;;;;;7.65;100.00;101055.62;1646489;86;21251;-78
2022/10/07 01:45:59;;;;;;;20.57;7.70;;;;;;;7.68;100.00;101051.27;1607654;89;21229;-78
2022/10/07 01:49:05;;;;;;;12.03;7.00;;;;;;;7.73;100.00;101063.11;1634969;87;21203;-78
2022/10/07 01:52:30;;;;;;;10.93;6.97;;;;;;;7.76;100.00;101054.13;1606278;89;21848;-78
2022/10/07 01:56:18;;;;;;;15.08;7.17;;;;;;;7.80;100.00;101056.09;1634669;87;21196;-79
2022/10/07 01:59:42;;;;;;;13.78;6.97;;;;;;;7.78;100.00;101056.23;1606995;89;21279;-77
2022/10/07 02:02:55;;;;;;;11.40;6.78;;;;;;;7.78;100.00;101052.15;1628140;87;21277;-78
2022/10/07 02:06:10;;;;;;;16.10;7.03;;;;;;;7.70;100.00;101050.62;1658089;86;21248;-78
2022/10/07 02:09:28;;;;;;;12.98;6.67;;;;;;;7.71;100.00;101057.78;1658121;86;21272;-78
2022/10/07 02:12:39;;;;;;;12.35;6.87;;;;;;;7.71;100.00;101052.34;1657790;86;21209;-79
2022/10/07 02:16:00;;;;;;;13.68;7.42;;;;;;;7.71;100.00;101052.34;1658275;86;21258;-78
2022/10/07 02:19:14;;;;;;;14.35;7.67;;;;;;;7.75;100.00;101057.01;1658318;86;21259;-78
2022/10/07 02:22:21;;;;;;;13.18;6.65;;;;;;;7.74;100.00;101058.88;1657888;86;21300;-78
2022/10/07 02:25:29;;;;;;;8.88;6.55;;;;;;;7.74;100.00;101056.66;1658394;86;21256;-77
2022/10/07 02:28:35;;;;;;;18.42;6.80;;;;;;;7.78;100.00;101051.30;1637979;86;21252;-78
2022/10/07 02:31:40;;;;;;;13.93;7.12;;;;;;;7.76;100.00;101050.05;1658354;86;21212;-78
2022/10/07 02:34:47;;;;;;;12.82;7.05;;;;;;;7.71;100.00;101055.05;1658363;86;21256;-77
2022/10/07 02:37:54;;;;;;;11.18;7.62;;;;;;;7.72;100.00;101055.44;1658140;86;21272;-77
2022/10/07 02:41:31;;;;;;;14.78;7.55;;;;;;;7.67;100.00;101057.73;1658149;86;21220;-77
2022/10/07 02:44:42;;;;;;;17.07;6.78;;;;;;;7.62;100.00;101061.34;1657648;86;21235;-77
2022/10/07 02:48:00;;;;;;;16.42;7.95;;;;;;;7.67;100.00;101056.37;1658257;86;21541;-77
2022/10/07 02:51:10;;;;;;;18.52;6.87;;;;;;;7.77;100.00;101059.11;1658288;86;21200;-77
2022/10/07 02:54:18;;;;;;;15.45;8.78;;;;;;;7.78;100.00;101067.13;1658292;86;21212;-77
2022/10/07 02:57:25;;;;;;;17.80;7.95;;;;;;;7.88;100.00;101071.23;1658357;86;21782;-80
2022/10/07 03:00:33;;;;;;;23.27;8.13;;;;;;;7.87;100.00;101067.66;1657019;86;21284;-77
2022/10/07 03:03:39;;;;;;;15.98;7.25;;;;;;;7.89;100.00;101070.22;1656157;86;21305;-77
2022/10/07 03:06:45;;;;;;;16.25;7.65;;;;;;;7.99;100.00;101070.23;1656784;86;21789;-77
2022/10/07 03:09:51;;;;;;;20.55;7.78;;;;;;;8.01;100.00;101069.61;1657852;86;21223;-77
2022/10/07 03:12:56;;;;;;;19.23;7.87;;;;;;;8.08;100.00;101069.39;1656481;86;21243;-77
2022/10/07 03:16:04;;;;;;;17.87;7.83;;;;;;;8.06;100.00;101068.69;1657679;86;21232;-77
2022/10/07 03:19:11;;;;;;;25.50;8.20;;;;;;;8.12;100.00;101066.24;1657727;86;21232;-77
2022/10/07 03:22:19;;;;;;;14.00;7.05;;;;;;;8.20;100.00;101066.91;1656357;86;21224;-77
2022/10/07 03:25:25;;;;;;;14.00;7.47;;;;;;;8.25;100.00;101066.48;1656414;86;21276;-77
2022/10/07 03:28:34;;;;;;;13.45;6.60;;;;;;;8.30;100.00;101066.41;1636677;86;21802;-77
2022/10/07 03:31:41;;;;;;;14.23;7.58;;;;;;;8.31;100.00;101065.90;1636848;86;21228;-77
2022/10/07 03:34:47;;;;;;;13.18;7.45;;;;;;;8.33;100.00;101066.12;1656977;86;21770;-77
2022/10/07 03:37:54;;;;;;;15.25;7.12;;;;;;;8.34;100.00;101066.98;1658253;86;21216;-78
2022/10/07 03:41:03;;;;;;;22.37;7.42;;;;;;;8.35;100.00;101068.19;1658439;86;21205;-78
2022/10/07 03:44:09;;;;;;;17.52;7.12;;;;;;;8.39;100.00;101078.34;1657467;86;21212;-78
2022/10/07 03:47:16;;;;;;;16.20;7.25;;;;;;;8.44;100.00;101081.00;1658298;86;21227;-78
2022/10/07 03:50:22;;;;;;;18.35;7.25;;;;;;;8.49;100.00;101086.52;1658329;86;21216;-78
2022/10/07 03:53:28;;;;;;;18.98;6.85;;;;;;;8.49;100.00;101085.16;1657896;86;21204;-78
2022/10/07 03:56:34;;;;;;;17.32;7.20;;;;;;;8.49;100.00;101080.56;1658271;86;21236;-78
2022/10/07 03:59:40;;;;;;;14.87;7.53;;;;;;;8.49;100.00;101082.44;1658208;86;21259;-77
2022/10/07 04:02:47;;;;;;;12.50;8.20;;;;;;;8.48;100.00;101082.08;1658238;86;21276;-77
2022/10/07 04:06:04;;;;;;;17.00;7.95;;;;;;;8.43;100.00;101082.52;1658250;86;21330;-77
2022/10/07 04:09:10;;;;;;;13.75;7.83;;;;;;;8.47;100.00;101078.97;1656890;86;21271;-77
2022/10/07 04:12:17;;;;;;;16.00;7.42;;;;;;;8.55;100.00;101078.61;1658559;86;21216;-77
2022/10/07 04:15:23;;;;;;;16.87;8.08;;;;;;;8.62;100.00;101083.86;1658253;86;21351;-77
2022/10/07 04:18:30;;;;;;;13.38;7.62;;;;;;;8.73;100.00;101076.02;1658606;86;21264;-77
2022/10/07 04:21:37;;;;;;;13.53;8.10;;;;;;;8.81;100.00;101079.39;1658408;86;21224;-77
2022/10/07 04:24:42;;;;;;;19.95;8.30;;;;;;;8.88;100.00;101086.83;1657694;86;21248;-78
2022/10/07 04:27:49;;;;;;;18.30;8.53;;;;;;;8.98;100.00;101090.04;1658351;86;21821;-78
2022/10/07 04:30:55;;;;;;;17.80;9.70;;;;;;;9.08;100.00;101089.50;1657870;86;21223;-78
2022/10/07 04:34:05;;;;;;;21.80;8.43;;;;;;;9.19;100.00;101097.54;1658422;86;21814;-79
2022/10/07 04:37:11;;;;;;;16.55;8.15;;;;;;;9.32;100.00;101096.71;1658252;86;21213;-78
2022/10/07 04:40:19;;;;;;;20.00;8.78;;;;;;;9.39;100.00;101098.33;1658463;86;21334;-77
2022/10/07 04:43:32;;;;;;;16.55;8.53;;;;;;;9.49;100.00;101103.23;1658260;86;21276;-78
2022/10/07 04:46:39;;;;;;;11.88;7.30;;;;;;;9.59;99.50;101103.20;1657468;86;21252;-78
2022/10/07 04:49:45;;;;;;;18.85;7.80;;;;;;;9.70;98.73;101107.11;1658157;86;21212;-78
2022/10/07 04:52:50;;;;;;;18.62;8.80;;;;;;;9.77;98.22;101106.84;1658258;86;21240;-78
2022/10/07 04:55:57;;;;;;;11.05;6.67;;;;;;;9.88;97.75;101115.34;1657278;86;21193;-77
2022/10/07 04:59:02;;;;;;;17.37;8.50;;;;;;;9.92;97.20;101113.52;1658285;86;21854;-78
2022/10/07 05:02:08;;;;;;;16.67;8.45;;;;;;;9.96;96.99;101120.40;1655666;86;21268;-79
2022/10/07 05:05:15;;;;;;;14.98;7.90;;;;;;;10.06;96.78;101118.12;1610242;87;21260;-78
2022/10/07 05:08:23;;;;;;;17.77;9.00;;;;;;;10.16;96.31;101118.91;1623563;88;21239;-79
2022/10/07 05:11:29;;;;;;;22.17;9.35;;;;;;;10.27;95.69;101116.01;1662094;84;21169;-78
2022/10/07 05:14:36;;;;;;;20.40;9.50;;;;;;;10.35;95.61;101123.41;1650797;85;21213;-79
2022/10/07 05:17:43;;;;;;;16.82;8.95;;;;;;;10.39;95.68;101123.47;1657821;84;21204;-79
2022/10/07 05:20:49;;;;;;;21.05;9.73;;;;;;;10.42;95.88;101123.16;1653458;84;21210;-79
2022/10/07 05:23:58;;;;;;;24.92;11.22;;;;;;;10.50;96.08;101128.72;1654193;84;21194;-79
2022/10/07 05:27:06;;;;;;;18.48;10.05;;;;;;;10.62;96.09;101130.70;1657937;84;21175;-79
2022/10/07 05:30:14;;;;;;;20.52;10.40;;;;;;;10.76;96.16;101134.25;1657565;84;21316;-78
2022/10/07 05:33:20;;;;;;;26.77;9.93;;;;;;;10.89;96.20;101130.61;1654591;84;21208;-77
2022/10/07 05:36:26;;;;;;;16.07;8.48;;;;;;;11.02;96.13;101135.68;1654919;84;21229;-77
2022/10/07 05:39:31;;;;;;;23.10;9.80;;;;;;;11.13;96.25;101144.99;1655938;84;21275;-79
2022/10/07 05:42:39;;;;;;;22.13;8.83;;;;;;;11.26;95.78;101148.17;1657509;84;21245;-79
2022/10/07 05:45:40;;;;;;;17.62;9.83;;;;;;;11.42;95.00;101143.81;1656032;84;21181;-78
2022/10/07 05:48:46;;;;;;;24.10;9.83;;;;;;;11.52;94.41;101153.64;1665334;84;21261;-79
2022/10/07 05:51:54;;;;;;;16.77;9.28;;;;;;;11.63;94.03;101156.63;1659906;84;21290;-78
2022/10/07 05:55:02;;;;;;;23.30;9.95;;;;;;;11.78;93.77;101159.62;1653457;86;22503;-78
2022/10/07 05:58:12;;;;;;;18.65;9.55;;;;;;;11.97;93.29;101158.02;1654638;84;22204;-78
2022/10/07 06:01:28;;;;;;;37.05;9.55;;;;;;;12.08;93.21;101164.23;1655857;84;21289;-79
2022/10/07 06:04:41;;;;;;;17.48;9.35;;;;;;;12.13;93.39;101161.84;1595541;87;21236;-79
2022/10/07 06:07:47;;;;;;;23.42;10.48;;;;;;;12.29;93.55;101161.92;1659682;86;21335;-78
2022/10/07 06:14:19;;;;;;;22.00;8.35;;;;;;;12.59;92.41;101169.19;1656834;84;22615;-78
2022/10/07 06:17:26;;;;;;;14.28;8.35;;;;;;;12.71;92.59;101167.33;1654359;84;21256;-78
2022/10/07 06:20:32;;;;;;;16.48;7.35;;;;;;;12.87;92.20;101173.34;1655538;85;21560;-78
2022/10/07 06:23:38;;;;;;;22.52;8.68;;;;;;;13.00;91.51;101170.09;1656477;84;21330;-78
2022/10/07 06:26:46;;;;;;;14.18;8.30;;;;;;;13.18;90.48;101176.80;1667143;85;21357;-78
2022/10/07 06:29:53;;;;;;;18.87;9.25;;;;;;;13.34;90.24;101176.80;1662614;84;22237;-78
2022/10/07 06:33:00;;;;;;;13.68;8.75;;;;;;;13.50;89.97;101174.05;1652090;85;21228;-79
2022/10/07 06:36:13;;;;;;;14.43;7.92;;;;;;;13.65;89.23;101175.56;1655165;86;22379;-79
2022/10/07 06:39:19;;;;;;;19.10;8.93;;;;;;;13.82;88.87;101179.11;1653174;84;21181;-80
2022/10/07 06:42:24;;;;;;;18.20;7.92;;;;;;;13.95;88.41;101178.03;1650748;84;21330;-77
2022/10/07 06:45:41;;;;;;;24.52;7.83;;;;;;;14.08;88.09;101175.25;1654283;85;21779;-79
2022/10/07 06:48:36;;;;;;;13.38;7.25;;;;;;;14.25;87.22;101172.75;1652891;85;21219;-79
2022/10/07 06:51:43;;;;;;;14.68;6.72;;;;;;;14.40;86.74;101175.09;1649309;84;21302;-79
2022/10/07 06:54:49;;;;;;;13.05;7.37;;;;;;;14.55;86.06;101174.69;1663625;84;21249;-79
2022/10/07 06:57:55;;;;;;;13.68;7.22;;;;;;;14.68;84.16;101179.61;1655854;84;21605;-80
2022/10/07 07:01:03;;;;;;;15.05;7.00;;;;;;;14.82;83.24;101182.95;1654982;84;22215;-79
2022/10/07 07:04:09;;;;;;;12.60;7.75;;;;;;;14.94;83.15;101175.63;1656489;84;21229;-78
2022/10/07 07:07:08;;;;;;;13.32;7.37;;;;;;;15.08;81.90;101169.31;1660438;84;21239;-78
2022/10/07 07:10:15;;;;;;;14.80;7.92;;;;;;;15.22;81.55;101175.92;1668311;86;21501;-78
2022/10/07 07:13:21;;;;;;;11.70;6.65;;;;;;;15.35;81.69;101178.91;1670024;84;21231;-78
2022/10/07 07:16:27;;;;;;;16.73;7.62;;;;;;;15.46;80.66;101183.95;1671841;84;21199;-79
2022/10/07 07:19:34;;;;;;;14.83;6.83;;;;;;;15.57;79.66;101175.24;1665554;84;21219;-78
2022/10/07 07:22:40;;;;;;;14.10;6.97;;;;;;;15.71;78.95;101174.08;1669500;84;21512;-79
2022/10/07 07:25:49;;;;;;;11.85;6.85;;;;;;;15.83;79.56;101172.58;1652224;84;21816;-79
2022/10/07 07:29:05;;;;;;;11.78;6.15;;;;;;;15.96;78.01;101182.43;1669225;84;22604;-79
2022/10/07 07:32:14;;;;;;;14.30;6.15;;;;;;;16.07;77.59;101180.56;1665733;84;21215;-79
2022/10/07 07:35:22;;;;;;;15.58;6.55;;;;;;;16.19;77.71;101186.99;1667361;84;21750;-78
2022/10/07 07:38:35;;;;;;;16.50;6.12;;;;;;;16.29;75.64;101179.27;1671102;84;21188;-78
2022/10/07 07:41:45;;;;;;;16.00;6.25;;;;;;;16.43;75.65;101178.91;1667587;84;21196;-79
2022/10/07 07:44:51;;;;;;;9.38;6.15;;;;;;;16.53;74.96;101173.92;1665606;84;21612;-78
2022/10/07 07:47:57;;;;;;;19.30;7.05;;;;;;;16.60;74.30;101172.08;1668213;84;21215;-79
2022/10/07 07:51:03;;;;;;;13.48;6.28;;;;;;;16.70;74.24;101171.77;1668140;84;21727;-79
2022/10/07 07:54:09;;;;;;;16.93;6.95;;;;;;;16.76;72.85;101171.89;1667304;86;21207;-79
2022/10/07 07:57:14;;;;;;;18.23;6.45;;;;;;;16.83;71.90;101171.95;1668732;84;21195;-79
2022/10/07 08:00:22;;;;;;;18.60;7.50;;;;;;;16.87;71.87;101169.13;1667186;84;21313;-79
2022/10/07 08:03:29;;;;;;;9.43;6.10;;;;;;;16.90;70.13;101170.13;1670211;84;21288;-79
2022/10/07 08:06:36;;;;;;;24.57;7.10;;;;;;;16.92;69.94;101165.24;1669002;84;21299;-79
2022/10/07 08:09:43;;;;;;;11.10;5.72;;;;;;;16.99;70.59;101173.09;1647854;85;21221;-78
2022/10/07 08:12:49;;;;;;;13.65;6.08;;;;;;;17.06;70.10;101170.38;1651174;85;21165;-79
2022/10/07 08:15:55;;;;;;;12.50;5.42;;;;;;;17.14;68.94;101176.30;1651668;85;21212;-79
2022/10/07 08:18:54;;;;;;;9.15;5.55;;;;;;;17.20;69.46;101170.82;1650301;85;21311;-79
2022/10/07 08:21:47;;;;;;;11.25;5.40;;;;;;;17.27;67.95;101168.14;1651871;85;21252;-77
2022/10/07 08:24:34;;;;;;;6.90;4.70;;;;;;;17.21;68.53;101167.00;1671922;85;21294;-78
2022/10/07 08:27:28;;;;;;;12.40;5.05;;;;;;;17.25;68.54;101172.98;1655918;85;21216;-77
2022/10/07 08:30:34;;;;;;;14.23;6.47;;;;;;;17.31;68.45;101186.89;1657312;85;21808;-78
2022/10/07 08:33:43;;;;;;;16.57;6.42;;;;;;;17.34;69.09;101177.33;1649189;85;21259;-77
2022/10/07 08:36:50;;;;;;;15.03;6.90;;;;;;;17.41;69.24;101170.45;1652651;86;21252;-78
2022/10/07 08:39:56;;;;;;;10.58;6.62;;;;;;;17.47;68.78;101172.44;1647428;85;22202;-78
2022/10/07 08:43:02;;;;;;;16.45;6.00;;;;;;;17.50;69.05;101174.28;1636708;86;21310;-78
2022/10/07 08:46:09;;;;;;;17.82;6.92;;;;;;;17.62;67.58;101161.59;1656658;85;21540;-78
2022/10/07 08:49:24;;;;;;;12.23;6.10;;;;;;;17.63;67.72;101167.98;1651688;85;21546;-78
2022/10/07 08:52:49;;;;;;;9.10;5.60;;;;;;;17.66;67.10;101162.58;1655893;85;21247;-78
2022/10/07 08:56:01;;;;;;;;;;;;;;;17.70;65.92;101172.19;1668351;85;21202;-79
2022/10/07 08:59:39;;;;;;;11.03;6.28;;;;;;;17.72;66.11;101167.30;1653275;85;20717;-79
2022/10/07 09:03:09;;;;;;;12.45;6.92;;;;;;;17.71;66.09;101169.20;1649214;85;21830;-79
2022/10/07 09:06:20;;;;;;;11.53;5.90;;;;;;;17.72;67.02;101172.83;1647702;86;21582;-79
2022/10/07 09:09:34;;;;;;;11.68;5.45;;;;;;;17.78;66.43;101169.27;1659365;84;21209;-79
2022/10/07 09:12:55;;;;;;;12.75;6.25;;;;;;;17.84;67.79;101164.34;1657014;86;21272;-78
2022/10/07 09:16:15;;;;;;;8.20;4.78;;;;;;;17.93;67.21;101165.88;1662679;84;21216;-79
2022/10/07 09:19:40;;;;;;;10.93;5.62;;;;;;;17.98;66.31;101169.42;1654171;85;21235;-78
2022/10/07 09:22:56;;;;;;;10.08;4.67;;;;;;;18.07;66.87;101168.20;1648048;84;21268;-78
2022/10/07 09:25:53;;;;;;;7.72;4.67;;;;;;;18.18;66.13;101173.67;1655530;84;21212;-79
2022/10/07 09:28:59;;;;;;;10.53;4.50;;;;;;;18.25;64.79;101174.02;1654408;85;21546;-78
2022/10/07 09:32:05;;;;;;;15.38;4.10;;;;;;;18.24;64.92;101170.07;1657546;84;21810;-78
2022/10/07 09:35:10;;;;;;;13.85;4.95;;;;;;;18.25;65.35;101158.78;1646859;84;21941;-79
2022/10/07 09:38:16;;;;;;;10.75;4.80;;;;;;;18.26;64.80;101172.13;1649836;86;21499;-78
2022/10/07 09:41:30;;;;;;;14.80;5.10;;;;;;;18.29;65.24;101156.46;1655979;84;21205;-78
2022/10/07 09:44:38;;;;;;;8.18;4.45;;;;;;;18.32;64.64;101156.06;1655796;86;21275;-79
2022/10/07 09:47:46;;;;;;;15.80;5.83;;;;;;;18.35;65.15;101161.20;1657230;84;21224;-79
2022/10/07 09:50:51;;;;;;;14.20;4.75;;;;;;;18.43;64.46;101153.22;1649460;85;21295;-79
2022/10/07 09:54:06;;;;;;;12.47;5.12;;;;;;;18.40;64.99;101154.50;1656352;85;22532;-78
2022/10/07 09:57:11;;;;;;;9.33;5.75;;;;;;;18.39;63.83;101154.16;1657891;84;21212;-79
2022/10/07 10:00:18;;;;;;;15.13;6.53;;;;;;;18.36;63.96;101157.36;1652604;85;21284;-78
2022/10/07 10:03:12;;;;;;;12.18;6.67;;;;;;;18.34;64.80;101158.08;1661915;85;22301;-78
2022/10/07 10:06:18;;;;;;;9.18;5.65;;;;;;;18.32;63.90;101144.98;1626568;85;21306;-78
2022/10/07 10:09:28;;;;;;;14.18;6.30;;;;;;;18.31;63.37;101140.52;1654534;86;21229;-79
2022/10/07 10:12:33;;;;;;;;;;;;;;;18.33;63.81;101140.61;1657986;86;21224;-78
2022/10/07 10:15:54;;;;;;;10.23;5.22;;;;;;;18.35;63.33;101136.27;1653527;86;20266;-78
2022/10/07 10:19:04;;;;;;;10.10;4.85;;;;;;;18.36;62.61;101143.51;1627042;88;21910;-81
2022/10/07 10:22:09;;;;;;;12.43;5.35;;;;;;;18.37;62.21;101136.37;1626742;88;21997;-81
2022/10/07 10:29:11;;;;;;;8.38;4.92;;;;;;;18.49;62.16;101135.25;1654926;85;21232;-81
2022/10/07 10:32:53;;;;;;;9.35;5.05;;;;;;;18.56;61.03;101129.19;1654650;86;21240;-81
2022/10/07 10:36:27;;;;;;;11.88;5.40;;;;;;;18.60;60.13;101133.25;1655296;86;21221;-80
2022/10/07 10:39:58;;;;;;;11.28;4.60;;;;;;;18.62;60.58;101126.95;1654163;86;21280;-81
2022/10/07 10:43:29;;;;;;;12.23;6.10;;;;;;;18.63;59.83;101111.17;1652914;86;21743;-80
2022/10/07 10:47:05;;;;;;;12.05;5.58;;;;;;;18.65;60.40;101109.92;1654310;86;21213;-80
2022/10/07 10:50:34;;;;;;;14.25;5.72;;;;;;;18.72;60.74;101107.71;1654426;86;21610;-81
2022/10/07 10:54:01;;;;;;;8.83;5.08;;;;;;;18.85;61.16;101112.75;1655877;86;21212;-81
2022/10/07 10:57:48;;;;;;;17.65;5.97;;;;;;;18.88;59.97;101109.56;1644988;86;21189;-80
2022/10/07 11:01:01;;;;;;;12.05;5.03;;;;;;;18.96;60.25;101115.45;1654612;86;21359;-81
2022/10/07 11:04:27;;;;;;;9.03;4.45;;;;;;;18.90;60.07;101104.65;1651045;86;21191;-80
2022/10/07 11:07:43;;;;;;;9.95;4.60;;;;;;;18.87;59.88;101105.63;1655975;86;21175;-81
2022/10/07 11:11:10;;;;;;;11.45;4.95;;;;;;;18.90;60.36;101103.27;1658011;85;21296;-81
2022/10/07 11:14:24;;;;;;;7.62;4.65;;;;;;;18.87;62.08;101109.25;1658901;86;21213;-81
2022/10/07 11:17:31;;;;;;;11.18;5.10;;;;;;;18.98;61.01;101115.22;1628756;88;21255;-81
2022/10/07 11:20:47;;;;;;;16.85;5.30;;;;;;;19.00;60.25;101111.16;1627656;88;21208;-81
2022/10/07 11:24:09;;;;;;;15.35;5.65;;;;;;;18.99;60.09;101103.06;1629215;88;21279;-82
2022/10/07 11:27:31;;;;;;;9.73;5.12;;;;;;;18.97;59.63;101112.98;1628915;88;21274;-81
2022/10/07 11:30:41;;;;;;;13.72;5.67;;;;;;;18.90;59.64;101107.95;1616094;88;21241;-81
2022/10/07 11:34:09;;;;;;;9.93;4.65;;;;;;;18.81;60.58;101106.45;1628437;88;21196;-82
2022/10/07 11:37:21;;;;;;;10.48;5.17;;;;;;;18.84;61.09;101105.50;1617188;88;21292;-81
2022/10/07 11:40:13;;;;;;;14.50;3.65;;;;;;;18.98;59.88;101100.83;1627599;88;21345;-81
2022/10/07 11:43:55;;;;;;;6.58;4.22;;;;;;;18.99;57.90;101098.37;1615842;88;21612;-82
2022/10/07 11:47:02;;;;;;;9.40;3.80;;;;;;;19.01;58.90;101114.27;1628229;88;21215;-81
2022/10/07 11:50:19;;;;;;;12.43;4.30;;;;;;;18.98;58.52;101107.76;1615381;88;21244;-81
2022/10/07 11:53:30;;;;;;;12.05;4.10;;;;;;;18.96;58.51;101107.13;1627014;88;22151;-80
2022/10/07 11:56:48;;;;;;;10.43;3.80;;;;;;;18.91;58.06;101105.50;1615982;88;21568;-82
2022/10/07 12:00:04;;;;;;;7.97;3.37;;;;;;;18.90;58.48;101098.25;1615869;88;21245;-81
2022/10/07 12:03:29;;;;;;;12.50;4.45;;;;;;;18.80;59.21;101102.83;1615539;88;21281;-80
2022/10/07 12:06:35;;;;;;;11.45;5.28;;;;;;;18.76;59.66;101109.00;1615518;88;21301;-80
2022/10/07 12:10:12;;;;;;;14.07;5.37;;;;;;;18.84;60.36;101102.73;1641648;86;21299;-80
2022/10/07 12:13:22;;;;;;;8.90;4.80;;;;;;;18.82;60.85;101102.61;1626209;88;22447;-81
2022/10/07 12:16:37;;;;;;;;;;;;;;;18.88;61.00;101096.23;1628857;88;21234;-80
2022/10/07 12:19:43;;;;;;;9.00;3.37;;;;;;;18.94;59.76;101105.08;1625916;88;20833;-81
2022/10/07 12:22:50;;;;;;;5.78;3.47;;;;;;;18.96;58.31;101101.58;1657057;85;21220;-82
2022/10/07 12:26:03;;;;;;;8.33;3.17;;;;;;;18.80;59.35;101095.90;1656622;86;21224;-81
2022/10/07 12:29:09;;;;;;;7.00;3.67;;;;;;;18.69;59.97;101086.84;1655791;86;21323;-81
2022/10/07 12:32:55;;;;;;;5.15;3.40;;;;;;;18.64;60.35;101086.05;1656762;86;21189;-81
2022/10/07 12:36:02;;;;;;;6.97;2.80;;;;;;;18.67;60.15;101090.84;1656803;86;21217;-81
2022/10/07 12:39:13;;;;;;;9.90;3.27;;;;;;;18.78;61.09;101091.65;1660077;84;21981;-81
2022/10/07 12:42:19;;;;;;;10.38;3.25;;;;;;;18.91;60.74;101090.25;1627957;87;21406;-81
2022/10/07 12:45:27;;;;;;;10.50;3.27;;;;;;;19.02;60.06;101078.55;1628794;88;21865;-80
2022/10/07 12:48:32;;;;;;;12.23;3.20;;;;;;;18.96;60.04;101098.81;1629546;88;21228;-81
2022/10/07 12:51:44;;;;;;;4.30;2.95;;;;;;;18.97;59.22;101088.04;1628959;88;21251;-81
2022/10/07 12:55:00;;;;;;;5.33;2.85;;;;;;;19.05;57.76;101083.64;1635178;86;21228;-81
2022/10/07 13:01:39;;;;;;;6.42;3.05;;;;;;;19.05;58.79;101083.64;1630078;86;21236;-81
2022/10/07 13:05:05;;;;;;;8.28;3.50;;;;;;;19.05;58.67;101086.95;1657303;86;21515;-82
2022/10/07 13:09:01;;;;;;;5.42;3.02;;;;;;;19.05;59.28;101085.03;1658690;86;21776;-81
2022/10/07 13:12:23;;;;;;;7.67;3.30;;;;;;;19.01;59.59;101087.09;1657965;86;21328;-81
2022/10/07 13:15:51;;;;;;;8.80;3.33;;;;;;;18.95;59.24;101083.22;1669911;86;21231;-80
2022/10/07 13:19:27;;;;;;;6.85;3.15;;;;;;;18.94;59.20;101087.06;1670208;86;21267;-82
2022/10/07 13:22:34;;;;;;;7.75;3.30;;;;;;;18.92;58.30;101086.44;1669111;86;21263;-83
2022/10/07 13:25:39;;;;;;;7.08;2.80;;;;;;;18.86;58.33;101085.88;1669322;86;21191;-80
2022/10/07 13:28:54;;;;;;;7.62;3.17;;;;;;;18.74;59.61;101077.89;1669653;86;21252;-81
2022/10/07 13:32:15;;;;;;;10.43;3.05;;;;;;;18.70;59.81;101079.38;1669107;86;21322;-81
2022/10/07 13:35:38;;;;;;;8.05;3.10;;;;;;;18.69;59.54;101083.22;1670596;86;21228;-81
2022/10/07 13:38:46;;;;;;;5.22;3.20;;;;;;;18.57;59.87;101081.02;1670722;86;21215;-81
2022/10/07 13:41:57;;;;;;;13.30;4.22;;;;;;;18.47;59.15;101080.57;1641649;87;21228;-81
2022/10/07 13:45:09;;;;;;;11.78;3.47;;;;;;;18.43;59.06;101080.66;1641374;87;21373;-81
2022/10/07 13:48:17;;;;;;;6.65;3.85;;;;;;;18.37;59.52;101077.36;1641873;87;21220;-81
2022/10/07 13:51:36;;;;;;;4.92;2.92;;;;;;;18.37;59.43;101072.66;1641460;87;21857;-82
2022/10/07 13:54:43;;;;;;;7.13;3.07;;;;;;;18.34;59.86;101065.30;1645227;86;22466;-81
2022/10/07 13:57:49;;;;;;;12.43;5.33;;;;;;;18.37;59.13;101069.05;1670451;86;21220;-81
2022/10/07 14:00:55;;;;;;;12.37;5.17;;;;;;;18.36;59.76;101064.58;1671056;86;21231;-81
2022/10/07 14:04:23;;;;;;;6.17;3.50;;;;;;;18.35;60.22;101064.27;1670002;86;21843;-81
2022/10/07 14:07:32;;;;;;;6.83;4.17;;;;;;;18.37;59.56;101062.97;1670732;85;21231;-81
2022/10/07 14:10:39;;;;;;;10.08;5.05;;;;;;;18.35;59.31;101062.88;1667226;85;21797;-81
2022/10/07 14:13:44;;;;;;;17.37;7.65;;;;;;;18.32;59.52;101061.91;1645087;86;21219;-81
2022/10/07 14:16:51;;;;;;;18.95;7.80;;;;;;;18.31;59.39;101069.36;1643504;84;21589;-81
2022/10/07 14:20:00;;;;;;;14.75;7.30;;;;;;;18.28;59.75;101073.07;1675969;84;21216;-82
2022/10/07 14:23:09;;;;;;;22.75;7.03;;;;;;;18.22;59.99;101061.45;1666806;86;21204;-81
2022/10/07 14:26:18;;;;;;;12.70;5.30;;;;;;;18.17;59.96;101065.38;1666907;84;21810;-82
2022/10/07 14:29:42;;;;;;;12.23;5.08;;;;;;;18.07;59.88;101063.00;1640811;87;21288;-83
2022/10/07 14:36:21;;;;;;;8.25;3.67;;;;;;;17.82;60.56;101073.73;1652642;84;21780;-81
2022/10/07 14:39:30;;;;;;;13.05;3.80;;;;;;;17.70;60.96;101070.67;1666274;86;21276;-81
2022/10/07 14:42:48;;;;;;;12.53;3.60;;;;;;;17.52;61.47;101067.05;1665299;86;21215;-81
2022/10/07 14:45:56;;;;;;;7.92;4.00;;;;;;;17.40;62.03;101069.20;1666092;86;21224;-82
2022/10/07 14:49:01;;;;;;;6.00;3.50;;;;;;;17.29;62.57;101066.48;1666596;86;21228;-81
2022/10/07 14:52:07;;;;;;;4.78;3.17;;;;;;;17.17;63.08;101065.31;1666484;86;21252;-81
2022/10/07 14:55:30;;;;;;;6.17;3.47;;;;;;;17.03;63.68;101069.38;1666650;86;21869;-82